Terminal Aerodrome Forecast
Issued by NWS Sioux Falls, SD

Home | Current Version | Previous Version | Graphics & Text | Print | Product List | Glossary On
Versions: 1 2 3 4 5 6 7 8 9 10 11 12 13 14 15 16 17 18 19 20 21 22 23 24 25 26 27 28 29
000
FTUS43 KFSD 251023 AAA
TAFSUX
TAF AMD
KSUX 251023Z 2510/2606 33015G24KT 4SM -SN OVC010
     FM251200 34020G28KT P6SM OVC010
     FM251700 34015G22KT P6SM BKN025
     FM252200 34010KT P6SM SCT040 BKN250
     FM260300 VRB03KT P6SM SCT100 BKN200=

USA.gov is the U.S. government's official web portal to all federal, state and local government web resources and services.